Aviation Digital Data Service (ADDS)

Output produced by METARs form (1024 UTC 19 February 2019)
found at http://www.aviationweather.gov/metar/data/
 
METAR text: ETNS 190920Z 25020KT 8000 -RA BKN006 06/05 Q1011 YLO WHT TEMPO YLO
Conditions at: ETNS (SCHLESWIG(GER-NA, DE) observed 0920 UTC 19 February 2019
Temperature: 6.0°C (43°F)
Dewpoint: 5.0°C (41°F) [RH = 93%]
Pressure (altimeter): 29.85 inches Hg (1011.0 mb)
Winds: from the WSW (250 degrees) at 23 MPH (20 knots; 10.3 m/s)
Visibility: 5 miles ( 8 km)
Ceiling: 600 feet AGL
Clouds: broken clouds at 600 feet AGL
Weather: -RA  (light rain)

METAR text: ETNS 190820Z 24017KT 8000 BKN005 06/05 Q1010 YLO WHT TEMPO YLO
Conditions at: ETNS (SCHLESWIG(GER-NA, DE) observed 0820 UTC 19 February 2019
Temperature: 6.0°C (43°F)
Dewpoint: 5.0°C (41°F) [RH = 93%]
Pressure (altimeter): 29.82 inches Hg (1010.0 mb)
Winds: from the WSW (240 degrees) at 20 MPH (17 knots; 8.7 m/s)
Visibility: 5 miles ( 8 km)
Ceiling: 500 feet AGL
Clouds: broken clouds at 500 feet AGL
Weather: no significant weather observed at this time

METAR text: ETNS 190737Z 25018KT 8000 BKN005 06/04 Q1011 YLO GRN TEMPO YLO
Conditions at: ETNS (SCHLESWIG(GER-NA, DE) observed 0737 UTC 19 February 2019
Temperature: 6.0°C (43°F)
Dewpoint: 4.0°C (39°F) [RH = 87%]
Pressure (altimeter): 29.85 inches Hg (1011.0 mb)
Winds: from the WSW (250 degrees) at 21 MPH (18 knots; 9.3 m/s)
Visibility: 5 miles ( 8 km)
Ceiling: 500 feet AGL
Clouds: broken clouds at 500 feet AGL
Weather: no significant weather observed at this time

METAR text: ETNS 190720Z 25017KT 7000 BKN005 06/05 Q1010 YLO GRN TEMPO YLO
Conditions at: ETNS (SCHLESWIG(GER-NA, DE) observed 0720 UTC 19 February 2019
Temperature: 6.0°C (43°F)
Dewpoint: 5.0°C (41°F) [RH = 93%]
Pressure (altimeter): 29.82 inches Hg (1010.0 mb)
Winds: from the WSW (250 degrees) at 20 MPH (17 knots; 8.7 m/s)
Visibility: 4 miles ( 7 km)
Ceiling: 500 feet AGL
Clouds: broken clouds at 500 feet AGL
Weather: no significant weather observed at this time

METAR text: ETNS 190654Z 25016KT 6000 BKN004 BKN009 06/05 Q1010 YLO GRN TEMPO YLO
Conditions at: ETNS (SCHLESWIG(GER-NA, DE) observed 0654 UTC 19 February 2019
Temperature: 6.0°C (43°F)
Dewpoint: 5.0°C (41°F) [RH = 93%]
Pressure (altimeter): 29.82 inches Hg (1010.0 mb)
Winds: from the WSW (250 degrees) at 18 MPH (16 knots; 8.2 m/s)
Visibility: 4 miles ( 6 km)
Ceiling: 400 feet AGL
Clouds: broken clouds at 400 feet AGL
broken clouds at 900 feet AGL
Weather: no significant weather observed at this time

METAR text: ETNS 190620Z 25016KT 5000 BR BKN003 06/05 Q1010 YLO GRN TEMPO YLO
Conditions at: ETNS (SCHLESWIG(GER-NA, DE) observed 0620 UTC 19 February 2019
Temperature: 6.0°C (43°F)
Dewpoint: 5.0°C (41°F) [RH = 93%]
Pressure (altimeter): 29.82 inches Hg (1010.0 mb)
Winds: from the WSW (250 degrees) at 18 MPH (16 knots; 8.2 m/s)
Visibility: 3 miles ( 5 km)
Ceiling: 300 feet AGL
Clouds: broken clouds at 300 feet AGL
Weather: BR  (mist)

METAR text: ETNS 190538Z 24015KT 5000 BR BKN003 BKN009 OVC021 06/05 Q1010 YLO GRN TEMPO YLO
Conditions at: ETNS (SCHLESWIG(GER-NA, DE) observed 0538 UTC 19 February 2019
Temperature: 6.0°C (43°F)
Dewpoint: 5.0°C (41°F) [RH = 93%]
Pressure (altimeter): 29.82 inches Hg (1010.0 mb)
Winds: from the WSW (240 degrees) at 17 MPH (15 knots; 7.7 m/s)
Visibility: 3 miles ( 5 km)
Ceiling: 300 feet AGL
Clouds: broken clouds at 300 feet AGL
broken clouds at 900 feet AGL
overcast cloud deck at 2100 feet AGL
Weather: BR  (mist)

METAR text: ETNS 190520Z 25013KT 5000 BR SCT002 BKN009 OVC021 06/05 Q1010 GRN GRN TEMPO YLO
Conditions at: ETNS (SCHLESWIG(GER-NA, DE) observed 0520 UTC 19 February 2019
Temperature: 6.0°C (43°F)
Dewpoint: 5.0°C (41°F) [RH = 93%]
Pressure (altimeter): 29.82 inches Hg (1010.0 mb)
Winds: from the WSW (250 degrees) at 15 MPH (13 knots; 6.7 m/s)
Visibility: 3 miles ( 5 km)
Ceiling: 900 feet AGL
Clouds: scattered clouds at 200 feet AGL
broken clouds at 900 feet AGL
overcast cloud deck at 2100 feet AGL
Weather: BR  (mist)

METAR text: ETNS 190420Z 25012KT 4200 -RA BR SCT003 OVC025 06/05 Q1010 GRN
Conditions at: ETNS (SCHLESWIG(GER-NA, DE) observed 0420 UTC 19 February 2019
Temperature: 6.0°C (43°F)
Dewpoint: 5.0°C (41°F) [RH = 93%]
Pressure (altimeter): 29.82 inches Hg (1010.0 mb)
Winds: from the WSW (250 degrees) at 14 MPH (12 knots; 6.2 m/s)
Visibility: 2.61 miles (4.20 km)
Ceiling: 2500 feet AGL
Clouds: scattered clouds at 300 feet AGL
overcast cloud deck at 2500 feet AGL
Weather: -RA BR  (light rain, mist)

METAR text: ETNS 190320Z AUTO 26012KT 3200 // ////// 06/05 Q1010 ///
Conditions at: ETNS (SCHLESWIG(GER-NA, DE) observed 0320 UTC 19 February 2019
Temperature: 6.0°C (43°F)
Dewpoint: 5.0°C (41°F) [RH = 93%]
Pressure (altimeter): 29.82 inches Hg (1010.0 mb)
Winds: from the W (260 degrees) at 14 MPH (12 knots; 6.2 m/s)
Visibility: 1.99 miles (3.20 km)
Ceiling: unknown
Clouds: missing
Weather: no significant weather observed at this time

METAR text: ETNS 190220Z AUTO 25011KT 5000 // ////// 07/05 Q1010 ///
Conditions at: ETNS (SCHLESWIG(GER-NA, DE) observed 0220 UTC 19 February 2019
Temperature: 7.0°C (45°F)
Dewpoint: 5.0°C (41°F) [RH = 87%]
Pressure (altimeter): 29.82 inches Hg (1010.0 mb)
Winds: from the WSW (250 degrees) at 13 MPH (11 knots; 5.7 m/s)
Visibility: 3 miles ( 5 km)
Ceiling: unknown
Clouds: missing
Weather: no significant weather observed at this time

METAR text: ETNS 190120Z AUTO 23006KT 6000 // ////// 06/04 Q1011 ///
Conditions at: ETNS (SCHLESWIG(GER-NA, DE) observed 0120 UTC 19 February 2019
Temperature: 6.0°C (43°F)
Dewpoint: 4.0°C (39°F) [RH = 87%]
Pressure (altimeter): 29.85 inches Hg (1011.0 mb)
Winds: from the SW (230 degrees) at 7 MPH (6 knots; 3.1 m/s)
Visibility: 4 miles ( 6 km)
Ceiling: unknown
Clouds: missing
Weather: no significant weather observed at this time

METAR text: ETNS 190020Z AUTO 19006KT 6000 // ////// 06/03 Q1011 ///
Conditions at: ETNS (SCHLESWIG(GER-NA, DE) observed 0020 UTC 19 February 2019
Temperature: 6.0°C (43°F)
Dewpoint: 3.0°C (37°F) [RH = 81%]
Pressure (altimeter): 29.85 inches Hg (1011.0 mb)
Winds: from the S (190 degrees) at 7 MPH (6 knots; 3.1 m/s)
Visibility: 4 miles ( 6 km)
Ceiling: unknown
Clouds: missing
Weather: no significant weather observed at this time

METAR text: ETNS 182320Z AUTO 21004KT 6000 // ////// 05/03 Q1011 ///
Conditions at: ETNS (SCHLESWIG(GER-NA, DE) observed 2320 UTC 18 February 2019
Temperature: 5.0°C (41°F)
Dewpoint: 3.0°C (37°F) [RH = 87%]
Pressure (altimeter): 29.85 inches Hg (1011.0 mb)
Winds: from the SSW (210 degrees) at 5 MPH (4 knots; 2.1 m/s)
Visibility: 4 miles ( 6 km)
Ceiling: unknown
Clouds: missing
Weather: no significant weather observed at this time

METAR text: ETNS 182220Z AUTO 22004KT 5000 // ////// 06/04 Q1012 ///
Conditions at: ETNS (SCHLESWIG(GER-NA, DE) observed 2220 UTC 18 February 2019
Temperature: 6.0°C (43°F)
Dewpoint: 4.0°C (39°F) [RH = 87%]
Pressure (altimeter): 29.88 inches Hg (1012.0 mb)
Winds: from the SW (220 degrees) at 5 MPH (4 knots; 2.1 m/s)
Visibility: 3 miles ( 5 km)
Ceiling: unknown
Clouds: missing
Weather: no significant weather observed at this time

METAR text: ETNS 182140Z 26002KT 8000 BKN028 BKN250 04/03 Q1012 BLU FCST CANCEL
Conditions at: ETNS (SCHLESWIG(GER-NA, DE) observed 2140 UTC 18 February 2019
Temperature: 4.0°C (39°F)
Dewpoint: 3.0°C (37°F) [RH = 93%]
Pressure (altimeter): 29.88 inches Hg (1012.0 mb)
Winds: from the W (260 degrees) at 2 MPH (2 knots; 1.0 m/s)
Visibility: 5 miles ( 8 km)
Ceiling: 2800 feet AGL
Clouds: broken clouds at 2800 feet AGL
broken clouds at 25000 feet AGL
Weather: no significant weather observed at this time

METAR text: ETNS 182120Z 22003KT 8000 FEW030 BKN250 05/03 Q1012 BLU+BLU+ TEMPO WHT
Conditions at: ETNS (SCHLESWIG(GER-NA, DE) observed 2120 UTC 18 February 2019
Temperature: 5.0°C (41°F)
Dewpoint: 3.0°C (37°F) [RH = 87%]
Pressure (altimeter): 29.88 inches Hg (1012.0 mb)
Winds: from the SW (220 degrees) at 3 MPH (3 knots; 1.5 m/s)
Visibility: 5 miles ( 8 km)
Ceiling: 25000 feet AGL
Clouds: few clouds at 3000 feet AGL
broken clouds at 25000 feet AGL
Weather: no significant weather observed at this time

METAR text: ETNS 182020Z 23004KT 9000 BKN260 05/03 Q1013 BLU+BLU+ TEMPO WHT
Conditions at: ETNS (SCHLESWIG(GER-NA, DE) observed 2020 UTC 18 February 2019
Temperature: 5.0°C (41°F)
Dewpoint: 3.0°C (37°F) [RH = 87%]
Pressure (altimeter): 29.91 inches Hg (1013.0 mb)
Winds: from the SW (230 degrees) at 5 MPH (4 knots; 2.1 m/s)
Visibility: 6 miles ( 9 km)
Ceiling: 26000 feet AGL
Clouds: broken clouds at 26000 feet AGL
Weather: no significant weather observed at this time

METAR text: ETNS 181920Z 23002KT 9000 BKN280 06/04 Q1013 BLU+BLU+ TEMPO WHT
Conditions at: ETNS (SCHLESWIG(GER-NA, DE) observed 1920 UTC 18 February 2019
Temperature: 6.0°C (43°F)
Dewpoint: 4.0°C (39°F) [RH = 87%]
Pressure (altimeter): 29.91 inches Hg (1013.0 mb)
Winds: from the SW (230 degrees) at 2 MPH (2 knots; 1.0 m/s)
Visibility: 6 miles ( 9 km)
Ceiling: 28000 feet AGL
Clouds: broken clouds at 28000 feet AGL
Weather: no significant weather observed at this time

METAR text: ETNS 181820Z 19004KT 9999 BKN300 08/04 Q1013 BLU+BLU+ TEMPO WHT
Conditions at: ETNS (SCHLESWIG(GER-NA, DE) observed 1820 UTC 18 February 2019
Temperature: 8.0°C (46°F)
Dewpoint: 4.0°C (39°F) [RH = 76%]
Pressure (altimeter): 29.91 inches Hg (1013.0 mb)
Winds: from the S (190 degrees) at 5 MPH (4 knots; 2.1 m/s)
Visibility: 6 or more miles (10+ km)
Ceiling: 30000 feet AGL
Clouds: broken clouds at 30000 feet AGL
Weather: no significant weather observed at this time

METAR text: ETNS 181720Z 20003KT 9999 BKN310 08/05 Q1014 BLU+BLU+
Conditions at: ETNS (SCHLESWIG(GER-NA, DE) observed 1720 UTC 18 February 2019
Temperature: 8.0°C (46°F)
Dewpoint: 5.0°C (41°F) [RH = 81%]
Pressure (altimeter): 29.94 inches Hg (1014.0 mb)
Winds: from the SSW (200 degrees) at 3 MPH (3 knots; 1.5 m/s)
Visibility: 6 or more miles (10+ km)
Ceiling: 31000 feet AGL
Clouds: broken clouds at 31000 feet AGL
Weather: no significant weather observed at this time

METAR text: ETNS 181620Z 18004KT 9999 BKN280 11/06 Q1014 BLU+BLU+
Conditions at: ETNS (SCHLESWIG(GER-NA, DE) observed 1620 UTC 18 February 2019
Temperature: 11.0°C (52°F)
Dewpoint: 6.0°C (43°F) [RH = 71%]
Pressure (altimeter): 29.94 inches Hg (1014.0 mb)
Winds: from the S (180 degrees) at 5 MPH (4 knots; 2.1 m/s)
Visibility: 6 or more miles (10+ km)
Ceiling: 28000 feet AGL
Clouds: broken clouds at 28000 feet AGL
Weather: no significant weather observed at this time

METAR text: ETNS 181520Z 20005KT 9999 FEW300 13/07 Q1014 BLU+BLU+
Conditions at: ETNS (SCHLESWIG(GER-NA, DE) observed 1520 UTC 18 February 2019
Temperature: 13.0°C (55°F)
Dewpoint: 7.0°C (45°F) [RH = 67%]
Pressure (altimeter): 29.94 inches Hg (1014.0 mb)
Winds: from the SSW (200 degrees) at 6 MPH (5 knots; 2.6 m/s)
Visibility: 6 or more miles (10+ km)
Ceiling: at least 12,000 feet AGL
Clouds: few clouds at 30000 feet AGL
Weather: no significant weather observed at this time

METAR text: ETNS 181420Z 22006KT 9999 FEW300 13/07 Q1015 BLU+BLU+
Conditions at: ETNS (SCHLESWIG(GER-NA, DE) observed 1420 UTC 18 February 2019
Temperature: 13.0°C (55°F)
Dewpoint: 7.0°C (45°F) [RH = 67%]
Pressure (altimeter): 29.97 inches Hg (1015.0 mb)
Winds: from the SW (220 degrees) at 7 MPH (6 knots; 3.1 m/s)
Visibility: 6 or more miles (10+ km)
Ceiling: at least 12,000 feet AGL
Clouds: few clouds at 30000 feet AGL
Weather: no significant weather observed at this time

METAR text: ETNS 181320Z 21009KT 9999 FEW350 13/06 Q1015 BLU+BLU+
Conditions at: ETNS (SCHLESWIG(GER-NA, DE) observed 1320 UTC 18 February 2019
Temperature: 13.0°C (55°F)
Dewpoint: 6.0°C (43°F) [RH = 62%]
Pressure (altimeter): 29.97 inches Hg (1015.0 mb)
Winds: from the SSW (210 degrees) at 10 MPH (9 knots; 4.6 m/s)
Visibility: 6 or more miles (10+ km)
Ceiling: at least 12,000 feet AGL
Clouds: few clouds at 35000 feet AGL
Weather: no significant weather observed at this time

METAR text: ETNS 181220Z 23009KT 9999 FEW350 12/06 Q1016 BLU+BLU+
Conditions at: ETNS (SCHLESWIG(GER-NA, DE) observed 1220 UTC 18 February 2019
Temperature: 12.0°C (54°F)
Dewpoint: 6.0°C (43°F) [RH = 67%]
Pressure (altimeter): 30.00 inches Hg (1016.0 mb)
Winds: from the SW (230 degrees) at 10 MPH (9 knots; 4.6 m/s)
Visibility: 6 or more miles (10+ km)
Ceiling: at least 12,000 feet AGL
Clouds: few clouds at 35000 feet AGL
Weather: no significant weather observed at this time

METAR text: ETNS 181120Z 21006KT 9999 FEW350 11/05 Q1016 BLU+BLU+
Conditions at: ETNS (SCHLESWIG(GER-NA, DE) observed 1120 UTC 18 February 2019
Temperature: 11.0°C (52°F)
Dewpoint: 5.0°C (41°F) [RH = 66%]
Pressure (altimeter): 30.00 inches Hg (1016.0 mb)
Winds: from the SSW (210 degrees) at 7 MPH (6 knots; 3.1 m/s)
Visibility: 6 or more miles (10+ km)
Ceiling: at least 12,000 feet AGL
Clouds: few clouds at 35000 feet AGL
Weather: no significant weather observed at this time

METAR text: ETNS 181020Z 21006KT 9999 FEW300 09/05 Q1017 BLU+BLU+
Conditions at: ETNS (SCHLESWIG(GER-NA, DE) observed 1020 UTC 18 February 2019
Temperature: 9.0°C (48°F)
Dewpoint: 5.0°C (41°F) [RH = 76%]
Pressure (altimeter): 30.03 inches Hg (1017.0 mb)
Winds: from the SSW (210 degrees) at 7 MPH (6 knots; 3.1 m/s)
Visibility: 6 or more miles (10+ km)
Ceiling: at least 12,000 feet AGL
Clouds: few clouds at 30000 feet AGL
Weather: no significant weather observed at this time

METAR text: ETNS 180920Z 21005KT 9999 FEW300 07/03 Q1017 BLU+BLU+
Conditions at: ETNS (SCHLESWIG(GER-NA, DE) observed 0920 UTC 18 February 2019
Temperature: 7.0°C (45°F)
Dewpoint: 3.0°C (37°F) [RH = 76%]
Pressure (altimeter): 30.03 inches Hg (1017.0 mb)
Winds: from the SSW (210 degrees) at 6 MPH (5 knots; 2.6 m/s)
Visibility: 6 or more miles (10+ km)
Ceiling: at least 12,000 feet AGL
Clouds: few clouds at 30000 feet AGL
Weather: no significant weather observed at this time

METAR text: ETNS 180820Z 20005KT 9999 FEW300 05/01 Q1018 BLU+BLU+
Conditions at: ETNS (SCHLESWIG(GER-NA, DE) observed 0820 UTC 18 February 2019
Temperature: 5.0°C (41°F)
Dewpoint: 1.0°C (34°F) [RH = 75%]
Pressure (altimeter): 30.06 inches Hg (1018.0 mb)
Winds: from the SSW (200 degrees) at 6 MPH (5 knots; 2.6 m/s)
Visibility: 6 or more miles (10+ km)
Ceiling: at least 12,000 feet AGL
Clouds: few clouds at 30000 feet AGL
Weather: no significant weather observed at this time

METAR text: ETNS 180720Z 17005KT 9999 FEW300 03/00 Q1018 BLU+BLU+ TEMPO WHT
Conditions at: ETNS (SCHLESWIG(GER-NA, DE) observed 0720 UTC 18 February 2019
Temperature: 3.0°C (37°F)
Dewpoint: 0.0°C (32°F) [RH = 81%]
Pressure (altimeter): 30.06 inches Hg (1018.0 mb)
Winds: from the S (170 degrees) at 6 MPH (5 knots; 2.6 m/s)
Visibility: 6 or more miles (10+ km)
Ceiling: at least 12,000 feet AGL
Clouds: few clouds at 30000 feet AGL
Weather: no significant weather observed at this time

METAR text: ETNS 180620Z 16005KT 9999 SCT300 03/01 Q1017 BLU+BLU+ TEMPO WHT
Conditions at: ETNS (SCHLESWIG(GER-NA, DE) observed 0620 UTC 18 February 2019
Temperature: 3.0°C (37°F)
Dewpoint: 1.0°C (34°F) [RH = 87%]
Pressure (altimeter): 30.03 inches Hg (1017.0 mb)
Winds: from the SSE (160 degrees) at 6 MPH (5 knots; 2.6 m/s)
Visibility: 6 or more miles (10+ km)
Ceiling: at least 12,000 feet AGL
Clouds: scattered clouds at 30000 feet AGL
Weather: no significant weather observed at this time

METAR text: ETNS 180520Z 19006KT 9999 BKN300 04/01 Q1017 BLU+BLU+ TEMPO WHT
Conditions at: ETNS (SCHLESWIG(GER-NA, DE) observed 0520 UTC 18 February 2019
Temperature: 4.0°C (39°F)
Dewpoint: 1.0°C (34°F) [RH = 81%]
Pressure (altimeter): 30.03 inches Hg (1017.0 mb)
Winds: from the S (190 degrees) at 7 MPH (6 knots; 3.1 m/s)
Visibility: 6 or more miles (10+ km)
Ceiling: 30000 feet AGL
Clouds: broken clouds at 30000 feet AGL
Weather: no significant weather observed at this time

METAR text: ETNS 180420Z 17006KT 9999 BKN300 04/01 Q1017 BLU+
Conditions at: ETNS (SCHLESWIG(GER-NA, DE) observed 0420 UTC 18 February 2019
Temperature: 4.0°C (39°F)
Dewpoint: 1.0°C (34°F) [RH = 81%]
Pressure (altimeter): 30.03 inches Hg (1017.0 mb)
Winds: from the S (170 degrees) at 7 MPH (6 knots; 3.1 m/s)
Visibility: 6 or more miles (10+ km)
Ceiling: 30000 feet AGL
Clouds: broken clouds at 30000 feet AGL
Weather: no significant weather observed at this time

METAR text: ETNS 180320Z AUTO 17006KT 8000 // ////// 04/01 Q1017 ///
Conditions at: ETNS (SCHLESWIG(GER-NA, DE) observed 0320 UTC 18 February 2019
Temperature: 4.0°C (39°F)
Dewpoint: 1.0°C (34°F) [RH = 81%]
Pressure (altimeter): 30.03 inches Hg (1017.0 mb)
Winds: from the S (170 degrees) at 7 MPH (6 knots; 3.1 m/s)
Visibility: 5 miles ( 8 km)
Ceiling: unknown
Clouds: missing
Weather: no significant weather observed at this time

METAR text: ETNS 180220Z AUTO 16005KT 8000 // ////// 03/01 Q1018 ///
Conditions at: ETNS (SCHLESWIG(GER-NA, DE) observed 0220 UTC 18 February 2019
Temperature: 3.0°C (37°F)
Dewpoint: 1.0°C (34°F) [RH = 87%]
Pressure (altimeter): 30.06 inches Hg (1018.0 mb)
Winds: from the SSE (160 degrees) at 6 MPH (5 knots; 2.6 m/s)
Visibility: 5 miles ( 8 km)
Ceiling: unknown
Clouds: missing
Weather: no significant weather observed at this time

METAR text: ETNS 180120Z AUTO 15004KT 8000 // ////// 04/02 Q1018 ///
Conditions at: ETNS (SCHLESWIG(GER-NA, DE) observed 0120 UTC 18 February 2019
Temperature: 4.0°C (39°F)
Dewpoint: 2.0°C (36°F) [RH = 87%]
Pressure (altimeter): 30.06 inches Hg (1018.0 mb)
Winds: from the SSE (150 degrees) at 5 MPH (4 knots; 2.1 m/s)
Visibility: 5 miles ( 8 km)
Ceiling: unknown
Clouds: missing
Weather: no significant weather observed at this time

METAR text: ETNS 180020Z AUTO 15006KT 7000 // ////// 05/02 Q1018 ///
Conditions at: ETNS (SCHLESWIG(GER-NA, DE) observed 0020 UTC 18 February 2019
Temperature: 5.0°C (41°F)
Dewpoint: 2.0°C (36°F) [RH = 81%]
Pressure (altimeter): 30.06 inches Hg (1018.0 mb)
Winds: from the SSE (150 degrees) at 7 MPH (6 knots; 3.1 m/s)
Visibility: 4 miles ( 7 km)
Ceiling: unknown
Clouds: missing
Weather: no significant weather observed at this time

METAR text: ETNS 172320Z AUTO 15007KT 8000 // ////// 05/02 Q1018 ///
Conditions at: ETNS (SCHLESWIG(GER-NA, DE) observed 2320 UTC 17 February 2019
Temperature: 5.0°C (41°F)
Dewpoint: 2.0°C (36°F) [RH = 81%]
Pressure (altimeter): 30.06 inches Hg (1018.0 mb)
Winds: from the SSE (150 degrees) at 8 MPH (7 knots; 3.6 m/s)
Visibility: 5 miles ( 8 km)
Ceiling: unknown
Clouds: missing
Weather: no significant weather observed at this time

Forecast for: COR
Text: TAF COR ETNS 190835Z 1909/1918 24015KT 8000 NSW SCT010 BKN020
Forecast period: 0900 to 1000 UTC 19 February 2019
Forecast type: FROM: standard forecast or significant change
Winds: from the WSW (240 degrees) at 17 MPH (15 knots; 7.7 m/s)
Visibility: 5 miles (8 km)
Ceiling: 2000 feet AGL
Clouds: scattered clouds at 1000 feet AGL
broken clouds at 2000 feet AGL
Weather: NSW  (no significant weather)
Text: TEMPO 1909/1912 24015G25KT 4000 -RA BKN005 BKN020TCU
Forecast period: 0900 to 1200 UTC 19 February 2019
Forecast type: TEMPORARY: The following changes expected for less than half the time period
Winds: from the WSW (240 degrees) at 17 MPH (15 knots; 7.7 m/s)
gusting to 29 MPH (25 knots; 12.9 m/s)
Visibility: 2.49 miles (4.01 km)
Ceiling: 500 feet AGL
Clouds: broken clouds at 500 feet AGL
broken clouds at 2000 feet AGL
Weather: -RA  (light rain)
Text: BECMG 1910/1912 25018G28KT 8000 NSW BKN030
Forecast period: 1000 to 1800 UTC 19 February 2019
Forecast type: BECOMING: Conditions expected to become as follows by 1200 UTC 19 February 2019
Winds: from the WSW (250 degrees) at 21 MPH (18 knots; 9.3 m/s)
gusting to 32 MPH (28 knots; 14.4 m/s)
Visibility: 5 miles (8 km)
Ceiling: 3000 feet AGL
Clouds: broken clouds at 3000 feet AGL
Weather: NSW  (no significant weather)
Text: TEMPO 1912/1916 26022G32KT 3000 SHRA BKN010 BKN015CB BY ETGL
Forecast period: 1200 to 1600 UTC 19 February 2019
Forecast type: TEMPORARY: The following changes expected for less than half the time period
Winds: from the W (260 degrees) at 25 MPH (22 knots; 11.3 m/s)
gusting to 37 MPH (32 knots; 16.5 m/s)
Visibility: 1.86 miles (2.99 km)
Ceiling: 1000 feet AGL
Clouds: broken clouds at 1000 feet AGL
broken clouds at 1500 feet AGL
Weather: SHRA  (rain showers)